»·PEaware :: CFGGM KOXR-KSBA

CFGGM :: KOXR-KSBA

FLIGHT INFORMATION

Flight Status: Arrived
Operator: Unknown
More flights by this operator :: More flights under this callsign
Pilot: Jeff M. (23161)
Aircraft: PIPER PA-28 CHEROKEE ARCHER
(P28A)
More flights by this aircraft type
Origin: KOXR Oxnard
United States
Destination: KSBA Santa Barbara Mun
United States
More flights between these airports :: More routes between these airports
Route: +KWANG GOLET
File this flight plan on PilotEdge
Remarks:
Altitude:
(Current/Filed)
3,500ft
Speed:
(Current/Filed)
115kts
Departed: 28-Jan-19 02:45 PM
Arrived: 28-Jan-19 03:26 PM
Distance/Time
Traveled:
34nm/0:41
Distance/Time
To Go:
Arrived

Flight Plot

Page will automatically refresh every two minutes.

Flight plan parsing failed; only flown route is shown


Map Options




Map Legend


Flown Route
Filed Route
Departure Airport
Arrival Airport
Navaid (VOR, NDB)
Fix

Horizontal Profiles

Position Reports

Time Latitude Longitude Heading Altitude Ground
Speed
28-Jan-19 14:35 34.198730 -119.202074 359 39ft 0kts
28-Jan-19 14:36 34.198730 -119.202074 359 39ft 0kts
28-Jan-19 14:37 34.198730 -119.202074 359 39ft 0kts
28-Jan-19 14:38 34.198730 -119.202074 359 39ft 0kts
28-Jan-19 14:39 34.198730 -119.202074 359 39ft 0kts
28-Jan-19 14:40 34.198754 -119.202074 359 39ft 0kts
28-Jan-19 14:41 34.199607 -119.201949 41 39ft 8kts
28-Jan-19 14:42 34.199822 -119.197694 55 43ft 5kts
28-Jan-19 14:43 34.199949 -119.197567 5 43ft 0kts
28-Jan-19 14:44 34.200724 -119.199469 269 42ft 54kts
28-Jan-19 14:45 34.199444 -119.227746 263 862ft 89kts
28-Jan-19 14:46 34.195294 -119.257509 257 1774ft 90kts
28-Jan-19 14:47 34.202660 -119.285179 304 2585ft 93kts
28-Jan-19 14:48 34.215570 -119.311047 298 3449ft 89kts
28-Jan-19 14:49 34.227659 -119.337900 296 4079ft 104kts
28-Jan-19 14:50 34.240856 -119.371818 297 4072ft 109kts
28-Jan-19 14:51 34.256373 -119.404327 299 4022ft 109kts
28-Jan-19 14:52 34.271818 -119.436273 312 4025ft 110kts
28-Jan-19 14:53 34.289958 -119.465768 272 4006ft 106kts
28-Jan-19 14:54 34.287773 -119.502318 265 4077ft 104kts
28-Jan-19 14:55 34.285420 -119.537499 265 4012ft 113kts
28-Jan-19 14:56 34.285036 -119.574002 269 4128ft 109kts
28-Jan-19 14:57 34.282740 -119.610896 265 4124ft 110kts
28-Jan-19 14:58 34.280338 -119.648787 265 4014ft 111kts
28-Jan-19 14:59 34.278033 -119.685651 265 4039ft 109kts
28-Jan-19 15:00 34.276172 -119.722408 272 4072ft 110kts
28-Jan-19 15:01 34.278150 -119.759285 272 4069ft 113kts
28-Jan-19 15:02 34.279357 -119.796829 271 4044ft 111kts
28-Jan-19 15:03 34.280436 -119.834188 271 4031ft 111kts
28-Jan-19 15:04 34.280757 -119.871433 264 4014ft 111kts
28-Jan-19 15:05 34.277741 -119.908614 264 4000ft 111kts
28-Jan-19 15:06 34.274712 -119.945758 264 3986ft 111kts
28-Jan-19 15:07 34.271693 -119.982743 264 3988ft 111kts
28-Jan-19 15:08 34.268669 -120.019725 264 4015ft 109kts
28-Jan-19 15:09 34.268130 -120.056353 296 3968ft 113kts
28-Jan-19 15:10 34.293582 -120.079373 330 3617ft 123kts
28-Jan-19 15:11 34.325435 -120.082994 354 3493ft 112kts
28-Jan-19 15:12 34.355888 -120.087788 354 3522ft 110kts
28-Jan-19 15:13 34.386550 -120.089968 0 3542ft 110kts
28-Jan-19 15:14 34.416747 -120.084692 37 3498ft 114kts
28-Jan-19 15:15 34.421221 -120.048180 87 3317ft 114kts
28-Jan-19 15:16 34.424397 -120.009595 84 2745ft 116kts
28-Jan-19 15:17 34.425511 -119.970551 87 2090ft 117kts
28-Jan-19 15:18 34.425039 -119.933102 88 1842ft 104kts
28-Jan-19 15:19 34.426868 -119.898220 88 1885ft 102kts
28-Jan-19 15:20 34.427270 -119.863458 87 1926ft 102kts
28-Jan-19 15:21 34.428919 -119.827349 89 1655ft 113kts
28-Jan-19 15:22 34.430476 -119.788625 81 846ft 119kts
28-Jan-19 15:23 34.437959 -119.797678 228 355ft 102kts
28-Jan-19 15:24 34.428150 -119.823965 265 215ft 74kts
28-Jan-19 15:25 34.428966 -119.842157 339 13ft 18kts

Navigation Log

Ident Type
Flight plan parsing failed, navigation log unavailable